Time;durP1;ratioP1;P1;durP2;ratioP2;P2;SDS_P1;SDS_P2;PMS_P1;PMS_P2;Temp;Humidity;BMP_temperature;BMP_pressure;BME280_temperature;BME280_humidity;BME280_pressure;Samples;Min_cycle;Max_cycle;Signal;HPM_P1;HPM_P2
2022/08/25 00:01:24;;;;;;;;;;;;;;;21.94;87.60;99319.47;3121197;28;20338;-63
2022/08/25 00:02:56;;;;;;;;;;;;;;;21.91;87.50;99323.28;3121438;28;19936;-63
2022/08/25 00:04:28;;;;;;;;;;;;;;;21.90;87.29;99326.91;3121037;28;20492;-63
2022/08/25 00:05:59;;;;;;;;;;;;;;;21.91;87.07;99317.97;3121427;28;19925;-63
2022/08/25 00:07:31;;;;;;;;;;;;;;;21.91;86.64;99317.13;3121168;28;19929;-63
2022/08/25 00:09:03;;;;;;;;;;;;;;;21.91;86.45;99319.78;3121263;28;19967;-63
2022/08/25 00:10:36;;;;;;;;;;;;;;;21.90;86.84;99321.63;3123035;28;19932;-63
2022/08/25 00:12:07;;;;;;;;;;;;;;;21.88;87.08;99331.53;3121342;28;20389;-63
2022/08/25 00:13:40;;;;;;;;;;;;;;;21.87;86.73;99337.81;3121077;28;19986;-62
2022/08/25 00:15:12;;;;;;;;;;;;;;;21.87;87.15;99345.78;3121110;28;19932;-62
2022/08/25 00:16:44;;;;;;;;;;;;;;;21.86;86.73;99344.13;3121041;28;19972;-62
2022/08/25 00:18:15;;;;;;;;;;;;;;;21.87;87.07;99337.81;3121168;28;19968;-61
2022/08/25 00:19:47;;;;;;;;;;;;;;;21.86;86.56;99338.81;3120882;28;19929;-62
2022/08/25 00:21:18;;;;;;;;;;;;;;;21.86;86.25;99341.47;3120939;28;19925;-62
2022/08/25 00:22:50;;;;;;;;;;;;;;;21.85;86.25;99336.31;3120935;28;19929;-61
2022/08/25 00:24:23;;;;;;;;;;;;;;;21.83;86.06;99333.81;3120930;28;20291;-61
2022/08/25 00:25:54;;;;;;;;;;;;;;;21.83;85.93;99331.19;3121227;28;19936;-62
2022/08/25 00:27:26;;;;;;;;;;;;;;;21.81;86.06;99333.13;3120745;28;20394;-62
2022/08/25 00:28:58;;;;;;;;;;;;;;;21.78;85.55;99328.16;3122156;28;20377;-62
2022/08/25 00:30:29;;;;;;;;;;;;;;;21.77;85.58;99323.84;3121454;28;19983;-62
2022/08/25 00:32:01;;;;;;;;;;;;;;;21.75;86.02;99323.97;3120814;28;20401;-62
2022/08/25 00:33:33;;;;;;;;;;;;;;;21.74;86.24;99330.28;3120806;28;20425;-62
2022/08/25 00:35:05;;;;;;;;;;;;;;;21.73;86.19;99333.06;3120929;28;19936;-62
2022/08/25 00:36:37;;;;;;;;;;;;;;;21.69;86.22;99329.06;3120705;28;19929;-62
2022/08/25 00:38:09;;;;;;;;;;;;;;;21.69;86.46;99327.25;3120812;28;19925;-62
2022/08/25 00:39:42;;;;;;;;;;;;;;;21.66;86.62;99321.41;3120957;28;19932;-62
2022/08/25 00:41:16;;;;;;;;;;;;;;;21.67;86.49;99315.13;3123051;28;19933;-63
2022/08/25 00:42:48;;;;;;;;;;;;;;;21.65;86.70;99310.00;3120673;28;20090;-62
2022/08/25 00:44:20;;;;;;;;;;;;;;;21.67;86.37;99312.47;3120308;28;19925;-62
2022/08/25 00:45:50;;;;;;;;;;;;;;;21.62;86.57;99306.78;3120906;28;20295;-62
2022/08/25 00:47:22;;;;;;;;;;;;;;;21.65;86.24;99312.63;3120764;28;20068;-62
2022/08/25 00:48:56;;;;;;;;;;;;;;;21.66;86.32;99308.16;3120931;28;19932;-62
2022/08/25 00:50:29;;;;;;;;;;;;;;;21.67;86.26;99309.81;3120779;28;20071;-62
2022/08/25 00:52:02;;;;;;;;;;;;;;;21.68;86.08;99308.81;3120736;28;19953;-62
2022/08/25 00:53:34;;;;;;;;;;;;;;;21.67;86.11;99301.88;3120541;28;19925;-62
2022/08/25 00:55:11;;;;;;;;;;;;;;;21.66;86.37;99301.03;3121664;28;19925;-62
2022/08/25 00:56:43;;;;;;;;;;;;;;;21.65;86.66;99304.69;3123021;28;19929;-62
2022/08/25 00:58:17;;;;;;;;;;;;;;;21.66;86.06;99300.22;3120549;28;19925;-62
2022/08/25 00:59:48;;;;;;;;;;;;;;;21.65;86.23;99295.88;3120698;28;19936;-62
2022/08/25 01:01:19;;;;;;;;;;;;;;;21.64;85.94;99292.41;3120541;28;19929;-62
2022/08/25 01:02:50;;;;;;;;;;;;;;;21.63;85.56;99292.56;3120756;28;19932;-62
2022/08/25 01:04:22;;;;;;;;;;;;;;;21.62;85.36;99288.25;3120661;28;19925;-62
2022/08/25 01:05:54;;;;;;;;;;;;;;;21.63;85.26;99290.75;3120702;28;19932;-62
2022/08/25 01:07:26;;;;;;;;;;;;;;;21.62;85.20;99290.88;3120425;28;19925;-62
2022/08/25 01:08:58;;;;;;;;;;;;;;;21.62;85.15;99288.25;3120703;28;19925;-62
2022/08/25 01:10:31;;;;;;;;;;;;;;;21.61;84.99;99287.41;3120712;28;20271;-63
2022/08/25 01:12:03;;;;;;;;;;;;;;;21.62;85.44;99275.81;3120167;28;19933;-62
2022/08/25 01:13:37;;;;;;;;;;;;;;;21.61;85.30;99270.69;3120472;28;19925;-62
2022/08/25 01:15:10;;;;;;;;;;;;;;;21.59;85.22;99273.47;3120158;28;19976;-62
2022/08/25 01:16:42;;;;;;;;;;;;;;;21.60;84.78;99277.81;3120661;28;20282;-61
2022/08/25 01:18:14;;;;;;;;;;;;;;;21.60;84.86;99279.63;3120186;28;19925;-62
2022/08/25 01:19:46;;;;;;;;;;;;;;;21.56;84.92;99276.44;3120255;28;19940;-62
2022/08/25 01:21:20;;;;;;;;;;;;;;;21.55;85.15;99277.44;3120209;28;19955;-62
2022/08/25 01:22:51;;;;;;;;;;;;;;;21.54;84.92;99281.91;3120257;28;19933;-62
2022/08/25 01:24:25;;;;;;;;;;;;;;;21.53;84.70;99276.72;3120485;28;19925;-62
2022/08/25 01:26:00;;;;;;;;;;;;;;;21.53;84.77;99277.59;3120384;28;19936;-62
2022/08/25 01:27:32;;;;;;;;;;;;;;;21.54;84.66;99278.41;3120000;28;19982;-63
2022/08/25 01:29:19;;;;;;;;;;;;;;;21.55;84.76;99275.59;3120666;28;19925;-63
2022/08/25 01:30:51;;;;;;;;;;;;;;;21.57;84.68;99276.28;3116331;28;20012;-63
2022/08/25 01:32:23;;;;;;;;;;;;;;;21.59;84.70;99278.78;3123162;28;19926;-62
2022/08/25 01:33:54;;;;;;;;;;;;;;;21.61;84.53;99273.34;3116285;28;20691;-62
2022/08/25 01:35:25;;;;;;;;;;;;;;;21.61;84.66;99266.22;3122715;28;19929;-62
2022/08/25 01:36:59;;;;;;;;;;;;;;;21.61;84.86;99270.69;3122886;28;19929;-62
2022/08/25 01:38:30;;;;;;;;;;;;;;;21.61;84.84;99271.50;3122662;28;19951;-62
2022/08/25 01:40:02;;;;;;;;;;;;;;;21.61;85.43;99276.81;3122857;28;20413;-62
2022/08/25 01:41:39;;;;;;;;;;;;;;;21.58;85.27;99277.13;3122882;28;19968;-62
2022/08/25 01:43:17;;;;;;;;;;;;;;;21.55;85.63;99275.59;3122830;28;20007;-62
2022/08/25 01:44:47;;;;;;;;;;;;;;;21.55;85.76;99280.06;3122787;28;19925;-62
2022/08/25 01:46:19;;;;;;;;;;;;;;;21.54;85.29;99276.59;3122559;28;19933;-62
2022/08/25 01:47:51;;;;;;;;;;;;;;;21.56;85.69;99279.06;3116517;28;19925;-62
2022/08/25 01:49:21;;;;;;;;;;;;;;;21.55;85.56;99278.25;3122658;28;19944;-62
2022/08/25 01:50:53;;;;;;;;;;;;;;;21.57;85.25;99275.47;3122323;28;19947;-62
2022/08/25 01:52:29;;;;;;;;;;;;;;;21.58;85.38;99277.94;3122765;28;19925;-62
2022/08/25 01:54:01;;;;;;;;;;;;;;;21.60;85.42;99271.69;3122761;28;20302;-62
2022/08/25 01:55:50;;;;;;;;;;;;;;;21.60;85.44;99275.16;3125550;28;19928;-62
2022/08/25 01:57:22;;;;;;;;;;;;;;;21.61;85.51;99271.50;3122352;28;19973;-62
2022/08/25 01:58:53;;;;;;;;;;;;;;;21.65;84.96;99274.69;3122415;28;20349;-62
2022/08/25 02:00:25;;;;;;;;;;;;;;;21.67;84.78;99281.50;3122599;28;20266;-62
2022/08/25 02:01:56;;;;;;;;;;;;;;;21.72;84.62;99273.09;3122472;28;19932;-62
2022/08/25 02:03:28;;;;;;;;;;;;;;;21.73;84.64;99264.16;3122488;28;19931;-62
2022/08/25 02:05:00;;;;;;;;;;;;;;;21.73;84.71;99272.94;3122478;28;19935;-62
2022/08/25 02:06:32;;;;;;;;;;;;;;;21.74;84.66;99271.09;3122727;28;19925;-62
2022/08/25 02:08:05;;;;;;;;;;;;;;;21.69;84.92;99262.81;3122568;28;19933;-62
2022/08/25 02:09:38;;;;;;;;;;;;;;;21.71;84.80;99266.13;3119905;28;19947;-62
2022/08/25 02:11:10;;;;;;;;;;;;;;;21.67;84.94;99257.66;3127505;28;20015;-62
2022/08/25 02:12:42;;;;;;;;;;;;;;;21.66;85.18;99252.53;3122250;28;20352;-62
2022/08/25 02:14:15;;;;;;;;;;;;;;;21.67;85.44;99254.16;3122227;28;19933;-62
2022/08/25 02:15:49;;;;;;;;;;;;;;;21.65;85.26;99242.88;3122200;28;20294;-62
2022/08/25 02:17:21;;;;;;;;;;;;;;;21.62;85.32;99241.38;3116042;28;20432;-62
2022/08/25 02:18:53;;;;;;;;;;;;;;;21.61;85.46;99239.72;3122371;28;19983;-62
2022/08/25 02:20:25;;;;;;;;;;;;;;;21.61;85.37;99233.59;3122223;28;19925;-62
2022/08/25 02:21:56;;;;;;;;;;;;;;;21.62;85.18;99237.91;3122352;28;19925;-62
2022/08/25 02:23:29;;;;;;;;;;;;;;;21.61;84.72;99239.72;3122460;28;19995;-62
2022/08/25 02:25:01;;;;;;;;;;;;;;;21.63;84.37;99243.06;3122180;28;19976;-62
2022/08/25 02:26:33;;;;;;;;;;;;;;;21.64;84.56;99238.59;3123197;28;19963;-63
2022/08/25 02:28:05;;;;;;;;;;;;;;;21.64;84.46;99238.59;3125420;28;20625;-62
2022/08/25 02:29:36;;;;;;;;;;;;;;;21.63;84.28;99240.41;3116095;28;19960;-62
2022/08/25 02:31:08;;;;;;;;;;;;;;;21.61;84.55;99239.72;3122218;28;19928;-62
2022/08/25 02:32:40;;;;;;;;;;;;;;;21.61;84.77;99239.72;3121998;28;19983;-62
2022/08/25 02:34:11;;;;;;;;;;;;;;;21.60;84.59;99239.88;3121784;28;20432;-62
2022/08/25 02:35:43;;;;;;;;;;;;;;;21.60;84.64;99231.94;3122048;28;19925;-62
2022/08/25 02:37:15;;;;;;;;;;;;;;;21.60;84.37;99231.94;3122092;28;19928;-62
2022/08/25 02:38:47;;;;;;;;;;;;;;;21.61;84.41;99242.38;3122102;28;20012;-64
2022/08/25 02:40:20;;;;;;;;;;;;;;;21.63;84.33;99242.22;3127585;28;20394;-61
2022/08/25 02:41:51;;;;;;;;;;;;;;;21.64;83.90;99238.59;3121986;28;19932;-61
2022/08/25 02:43:23;;;;;;;;;;;;;;;21.65;84.03;99240.22;3122125;28;19925;-60
2022/08/25 02:44:55;;;;;;;;;;;;;;;21.65;83.76;99225.19;3121823;28;20441;-61
2022/08/25 02:46:27;;;;;;;;;;;;;;;21.62;83.88;99237.91;3121988;28;19929;-60
2022/08/25 02:47:58;;;;;;;;;;;;;;;21.62;83.66;99230.78;3122065;28;19929;-61
2022/08/25 02:49:30;;;;;;;;;;;;;;;21.63;83.30;99223.69;3121675;28;19929;-60
2022/08/25 02:51:02;;;;;;;;;;;;;;;21.64;83.39;99222.69;3122125;28;19925;-61
2022/08/25 02:52:34;;;;;;;;;;;;;;;21.61;83.60;99223.00;3121881;28;20479;-62
2022/08/25 02:54:07;;;;;;;;;;;;;;;21.61;83.50;99212.41;3121898;28;20016;-62
2022/08/25 02:55:38;;;;;;;;;;;;;;;21.61;83.69;99212.41;3122787;28;20423;-62
2022/08/25 02:57:10;;;;;;;;;;;;;;;21.56;83.80;99211.06;3121740;28;19928;-61
2022/08/25 02:58:41;;;;;;;;;;;;;;;21.54;83.50;99207.72;3122191;28;20060;-62
2022/08/25 03:00:14;;;;;;;;;;;;;;;21.52;83.76;99204.38;3122064;28;19929;-61
2022/08/25 03:01:46;;;;;;;;;;;;;;;21.51;83.73;99215.97;3121985;28;19925;-62
2022/08/25 03:03:17;;;;;;;;;;;;;;;21.50;83.33;99209.03;3121941;28;19925;-62
2022/08/25 03:04:49;;;;;;;;;;;;;;;21.51;83.65;99215.16;3121797;28;20015;-62
2022/08/25 03:06:21;;;;;;;;;;;;;;;21.47;83.65;99205.81;3121811;28;20287;-62
2022/08/25 03:07:53;;;;;;;;;;;;;;;21.43;83.76;99205.31;3121486;28;19973;-62
2022/08/25 03:09:26;;;;;;;;;;;;;;;21.43;83.82;99205.31;3121943;28;19933;-61
2022/08/25 03:10:57;;;;;;;;;;;;;;;21.41;83.92;99204.63;3125063;28;19937;-62
2022/08/25 03:12:28;;;;;;;;;;;;;;;21.41;83.92;99201.13;3121599;28;19935;-62
2022/08/25 03:14:00;;;;;;;;;;;;;;;21.40;83.87;99202.97;3121802;28;19925;-62
2022/08/25 03:15:31;;;;;;;;;;;;;;;21.38;84.18;99204.91;3121718;28;19925;-62
2022/08/25 03:17:03;;;;;;;;;;;;;;;21.40;83.80;99200.31;3121576;28;19925;-62
2022/08/25 03:18:35;;;;;;;;;;;;;;;21.41;83.85;99198.50;3121615;28;19929;-62
2022/08/25 03:20:07;;;;;;;;;;;;;;;21.42;83.70;99201.00;3123716;28;19925;-63
2022/08/25 03:21:38;;;;;;;;;;;;;;;21.44;83.49;99198.19;3121663;28;19929;-63
2022/08/25 03:23:10;;;;;;;;;;;;;;;21.43;83.52;99202.66;3121488;28;19964;-63
2022/08/25 03:24:43;;;;;;;;;;;;;;;21.43;83.39;99205.31;3121575;28;19929;-62
2022/08/25 03:28:02;;;;;;;;;;;;;;;21.40;83.41;99200.31;3121720;28;19925;-62
2022/08/25 03:29:34;;;;;;;;;;;;;;;21.40;83.58;99210.06;3121582;28;19982;-62
2022/08/25 03:31:05;;;;;;;;;;;;;;;21.36;83.61;99209.56;3121401;28;19983;-62
2022/08/25 03:32:37;;;;;;;;;;;;;;;21.37;83.44;99213.03;3121372;28;20464;-62
2022/08/25 03:34:08;;;;;;;;;;;;;;;21.35;83.63;99213.16;3121477;28;19929;-61
2022/08/25 03:35:39;;;;;;;;;;;;;;;21.33;83.58;99220.44;3121560;28;20271;-62
2022/08/25 03:37:11;;;;;;;;;;;;;;;21.32;83.85;99218.75;3121446;28;19925;-64
2022/08/25 03:38:41;;;;;;;;;;;;;;;21.31;83.53;99220.56;3121470;28;20020;-62
2022/08/25 03:40:16;;;;;;;;;;;;;;;21.30;83.79;99220.72;3125538;28;20286;-62
2022/08/25 03:41:48;;;;;;;;;;;;;;;21.31;83.54;99225.03;3121489;28;19925;-62
2022/08/25 03:43:19;;;;;;;;;;;;;;;21.32;83.25;99224.03;3121255;28;19929;-62
2022/08/25 03:44:50;;;;;;;;;;;;;;;21.34;83.22;99224.72;3121466;28;19972;-63
2022/08/25 03:46:23;;;;;;;;;;;;;;;21.35;83.20;99229.03;3121597;28;19937;-63
2022/08/25 03:47:55;;;;;;;;;;;;;;;21.37;82.99;99223.63;3121468;28;19925;-63
2022/08/25 03:49:27;;;;;;;;;;;;;;;21.38;83.17;99226.09;3121134;28;19925;-63
2022/08/25 03:50:58;;;;;;;;;;;;;;;21.39;82.95;99227.78;3121739;28;19939;-62
2022/08/25 03:52:29;;;;;;;;;;;;;;;21.40;82.89;99224.16;3121146;28;20181;-63
2022/08/25 03:54:01;;;;;;;;;;;;;;;21.40;82.91;99228.63;3120676;28;20386;-63
2022/08/25 03:55:34;;;;;;;;;;;;;;;21.40;82.90;99220.69;3126220;28;19932;-63
2022/08/25 03:57:06;;;;;;;;;;;;;;;21.41;82.70;99222.31;3122057;28;19925;-63
2022/08/25 03:58:36;;;;;;;;;;;;;;;21.44;82.60;99222.03;3121153;28;19933;-63
2022/08/25 04:00:10;;;;;;;;;;;;;;;21.45;82.42;99223.72;3121306;28;20823;-63
2022/08/25 04:01:43;;;;;;;;;;;;;;;21.44;82.63;99219.38;3121197;28;19925;-63
2022/08/25 04:03:13;;;;;;;;;;;;;;;21.44;82.49;99222.84;3121462;28;19937;-63
2022/08/25 04:04:45;;;;;;;;;;;;;;;21.46;82.68;99236.78;3121049;28;20325;-63
2022/08/25 04:06:17;;;;;;;;;;;;;;;21.48;82.47;99241.94;3121390;28;19939;-63
2022/08/25 04:07:48;;;;;;;;;;;;;;;21.48;82.43;99240.13;3121338;28;19932;-63
2022/08/25 04:09:20;;;;;;;;;;;;;;;21.46;82.63;99246.56;3121323;28;19936;-63
2022/08/25 04:10:53;;;;;;;;;;;;;;;21.44;82.83;99244.03;3122540;28;19925;-64
2022/08/25 04:12:25;;;;;;;;;;;;;;;21.44;82.64;99238.75;3121020;28;20682;-64
2022/08/25 04:13:57;;;;;;;;;;;;;;;21.42;83.12;99245.19;3121404;28;19929;-64
2022/08/25 04:15:29;;;;;;;;;;;;;;;21.38;83.10;99244.66;3121174;28;20004;-63
2022/08/25 04:17:00;;;;;;;;;;;;;;;21.40;82.77;99239.22;3121031;28;19936;-64
2022/08/25 04:18:33;;;;;;;;;;;;;;;21.39;82.98;99241.03;3120819;28;19929;-64
2022/08/25 04:20:05;;;;;;;;;;;;;;;21.38;82.89;99242.00;3121518;28;19925;-64
2022/08/25 04:21:37;;;;;;;;;;;;;;;21.38;82.86;99244.66;3121175;28;20412;-64
2022/08/25 04:23:10;;;;;;;;;;;;;;;21.40;82.85;99237.41;3121140;28;19928;-64
2022/08/25 04:24:41;;;;;;;;;;;;;;;21.42;82.75;99242.56;3120847;28;19943;-63
2022/08/25 04:26:15;;;;;;;;;;;;;;;21.42;82.86;99229.31;3121403;28;19929;-64
2022/08/25 04:27:47;;;;;;;;;;;;;;;21.42;82.84;99232.78;3120982;28;20421;-64
2022/08/25 04:29:21;;;;;;;;;;;;;;;21.44;82.61;99229.97;3120949;28;20398;-63
2022/08/25 04:30:52;;;;;;;;;;;;;;;21.46;82.47;99235.97;3120957;28;19925;-63
2022/08/25 04:32:24;;;;;;;;;;;;;;;21.46;82.58;99235.97;3120790;28;19956;-63
2022/08/25 04:33:55;;;;;;;;;;;;;;;21.45;82.46;99229.81;3123420;28;20397;-63
2022/08/25 04:35:27;;;;;;;;;;;;;;;21.48;82.46;99234.00;3120693;28;20322;-62
2022/08/25 04:36:59;;;;;;;;;;;;;;;21.47;82.25;99221.72;3120846;28;20420;-63
2022/08/25 04:38:31;;;;;;;;;;;;;;;21.47;82.17;99224.38;3120815;28;19935;-63
2022/08/25 04:40:03;;;;;;;;;;;;;;;21.47;82.14;99227.84;3122918;28;20447;-63
2022/08/25 04:41:36;;;;;;;;;;;;;;;21.48;82.01;99229.53;3120845;28;19931;-63
2022/08/25 04:43:08;;;;;;;;;;;;;;;21.49;82.11;99225.06;3121106;28;19925;-63
2022/08/25 04:44:40;;;;;;;;;;;;;;;21.48;81.85;99226.03;3120745;28;19929;-62
2022/08/25 04:46:15;;;;;;;;;;;;;;;21.44;82.10;99233.44;3120863;28;19948;-63
2022/08/25 04:47:46;;;;;;;;;;;;;;;21.45;82.50;99234.31;3120793;28;19936;-63
2022/08/25 04:49:17;;;;;;;;;;;;;;;21.47;82.12;99237.59;3121256;28;19952;-62
2022/08/25 04:50:48;;;;;;;;;;;;;;;21.48;82.12;99229.53;3120813;28;19925;-64
2022/08/25 04:52:20;;;;;;;;;;;;;;;21.50;82.17;99224.06;3120731;28;19933;-64
2022/08/25 04:53:52;;;;;;;;;;;;;;;21.52;81.86;99216.78;3120874;28;19931;-65
2022/08/25 04:55:24;;;;;;;;;;;;;;;21.52;82.21;99212.31;3124080;28;20297;-65
2022/08/25 04:56:57;;;;;;;;;;;;;;;21.53;82.02;99214.00;3112859;28;19936;-65
2022/08/25 04:58:27;;;;;;;;;;;;;;;21.53;81.93;99219.31;3120766;28;20417;-63
2022/08/25 04:59:59;;;;;;;;;;;;;;;21.53;81.73;99216.66;3120611;28;19926;-63
2022/08/25 05:01:30;;;;;;;;;;;;;;;21.54;81.82;99220.97;3121064;28;19936;-66
2022/08/25 05:03:02;;;;;;;;;;;;;;;21.56;81.60;99213.69;3120764;28;19925;-66
2022/08/25 05:04:34;;;;;;;;;;;;;;;21.59;81.52;99217.84;3120729;28;19925;-67
2022/08/25 05:06:04;;;;;;;;;;;;;;;21.58;81.58;99206.41;3120901;28;19936;-67
2022/08/25 05:07:37;;;;;;;;;;;;;;;21.61;81.49;99209.75;3120765;28;19932;-67
2022/08/25 05:09:08;;;;;;;;;;;;;;;21.63;81.54;99215.72;3120622;28;19932;-67
2022/08/25 05:10:40;;;;;;;;;;;;;;;21.65;81.43;99213.75;3123816;28;19932;-66
2022/08/25 05:12:13;;;;;;;;;;;;;;;21.66;81.60;99215.41;3123565;28;19929;-67
2022/08/25 05:13:45;;;;;;;;;;;;;;;21.68;81.78;99216.94;3120601;28;19936;-66
2022/08/25 05:17:06;;;;;;;;;;;;;;;21.77;81.31;99217.81;3120679;28;19929;-66
2022/08/25 05:18:37;;;;;;;;;;;;;;;21.79;81.58;99219.31;3120596;28;20317;-66
2022/08/25 05:20:09;;;;;;;;;;;;;;;21.83;81.17;99211.91;3120483;28;19925;-67
2022/08/25 05:21:41;;;;;;;;;;;;;;;21.87;81.20;99213.25;3120241;28;20348;-67
2022/08/25 05:23:12;;;;;;;;;;;;;;;21.91;80.93;99211.94;3120615;28;19929;-66
2022/08/25 05:24:44;;;;;;;;;;;;;;;21.96;80.71;99216.78;3120705;28;19987;-66
2022/08/25 05:26:16;;;;;;;;;;;;;;;22.01;80.68;99212.66;3120648;28;20425;-67
2022/08/25 05:27:49;;;;;;;;;;;;;;;22.08;80.16;99214.69;3120305;28;20262;-65
2022/08/25 05:29:21;;;;;;;;;;;;;;;22.14;80.24;99222.00;3120373;28;19933;-65
2022/08/25 05:30:57;;;;;;;;;;;;;;;22.18;79.99;99215.44;3120652;28;20311;-65
2022/08/25 05:32:29;;;;;;;;;;;;;;;22.23;79.68;99218.44;3120638;28;19947;-65
2022/08/25 05:34:00;;;;;;;;;;;;;;;22.26;79.48;99215.47;3120744;28;19959;-64
2022/08/25 05:35:32;;;;;;;;;;;;;;;22.32;79.19;99217.50;3120023;28;19925;-66
2022/08/25 05:37:03;;;;;;;;;;;;;;;22.37;78.66;99215.19;3120631;28;19926;-65
2022/08/25 05:38:34;;;;;;;;;;;;;;;22.43;78.63;99213.75;3120219;28;19944;-65
2022/08/25 05:40:07;;;;;;;;;;;;;;;22.49;77.78;99215.75;3120670;28;20294;-64
2022/08/25 05:41:38;;;;;;;;;;;;;;;22.58;78.13;99214.78;3120506;28;19931;-67
2022/08/25 05:43:11;;;;;;;;;;;;;;;;;;3120500;28;19936;-66
2022/08/25 05:44:44;;;;;;;;;;;;;;;22.77;77.04;99216.31;3120300;28;20349;-65
2022/08/25 05:46:16;;;;;;;;;;;;;;;22.88;76.69;99218.69;3120245;28;20329;-65
2022/08/25 05:47:48;;;;;;;;;;;;;;;22.98;76.09;99213.25;3113794;28;20295;-65
2022/08/25 05:49:19;;;;;;;;;;;;;;;23.10;75.13;99208.47;3120776;28;19925;-66
2022/08/25 05:50:50;;;;;;;;;;;;;;;23.21;74.86;99210.81;3120477;28;19936;-66
2022/08/25 05:52:22;;;;;;;;;;;;;;;23.31;74.19;99213.31;3120379;28;20624;-66
2022/08/25 05:53:54;;;;;;;;;;;;;;;23.43;73.69;99203.19;3120492;28;20661;-64
2022/08/25 05:55:25;;;;;;;;;;;;;;;23.52;73.19;99204.84;3122880;28;20329;-65
2022/08/25 05:56:57;;;;;;;;;;;;;;;23.58;72.09;99204.19;3120179;28;20331;-66
2022/08/25 05:58:30;;;;;;;;;;;;;;;23.64;71.58;99203.50;3120517;28;19931;-65
2022/08/25 06:00:04;;;;;;;;;;;;;;;23.68;71.11;99207.47;3119968;28;19936;-67
2022/08/25 06:03:24;;;;;;;;;;;;;;;23.79;70.91;99201.84;3114546;28;20409;-68
2022/08/25 06:04:57;;;;;;;;;;;;;;;23.87;70.86;99194.84;3120525;28;19932;-66
2022/08/25 06:06:29;;;;;;;;;;;;;;;23.95;70.51;99197.50;3120359;28;20454;-66
2022/08/25 06:08:00;;;;;;;;;;;;;;;24.06;70.14;99191.81;3120530;28;19929;-65
2022/08/25 06:09:32;;;;;;;;;;;;;;;24.14;69.75;99196.28;3120502;28;19984;-68
2022/08/25 06:11:04;;;;;;;;;;;;;;;24.22;68.94;99194.41;3124540;28;19929;-68
2022/08/25 06:12:35;;;;;;;;;;;;;;;24.34;69.05;99194.03;3120332;28;19936;-69
2022/08/25 06:14:08;;;;;;;;;;;;;;;24.42;69.17;99194.00;3120172;28;19925;-68
2022/08/25 06:15:40;;;;;;;;;;;;;;;24.48;68.45;99193.34;3119876;28;19933;-68
2022/08/25 06:17:12;;;;;;;;;;;;;;;24.52;67.31;99190.19;3121192;28;19936;-69
2022/08/25 06:18:44;;;;;;;;;;;;;;;24.58;66.52;99187.81;3122907;28;20285;-68
2022/08/25 06:20:17;;;;;;;;;;;;;;;24.66;66.33;99195.75;3126001;28;20016;-65
2022/08/25 06:21:49;;;;;;;;;;;;;;;24.73;65.36;99194.06;3122417;28;19936;-66
2022/08/25 06:23:20;;;;;;;;;;;;;;;24.81;65.36;99195.84;3122592;28;20008;-67
2022/08/25 06:24:52;;;;;;;;;;;;;;;24.88;64.91;99191.50;3121146;28;20022;-66
2022/08/25 06:26:24;;;;;;;;;;;;;;;25.00;65.13;99183.91;3116428;28;20012;-64
2022/08/25 06:27:55;;;;;;;;;;;;;;;25.07;64.54;99188.34;3116007;28;20318;-65
2022/08/25 06:29:27;;;;;;;;;;;;;;;25.15;64.42;99190.16;3122315;28;19925;-66
2022/08/25 06:31:00;;;;;;;;;;;;;;;25.18;63.42;99184.47;3122220;28;19940;-65
2022/08/25 06:32:32;;;;;;;;;;;;;;;25.20;63.32;99187.78;3122121;28;19948;-66
2022/08/25 06:34:04;;;;;;;;;;;;;;;25.22;62.94;99187.59;3122424;28;19990;-66
2022/08/25 06:35:36;;;;;;;;;;;;;;;25.25;63.01;99176.59;3122360;28;19925;-65
2022/08/25 06:37:08;;;;;;;;;;;;;;;25.29;62.57;99180.53;3121817;28;19940;-68
2022/08/25 06:38:40;;;;;;;;;;;;;;;25.31;62.39;99184.69;3122011;28;19925;-68
2022/08/25 06:40:12;;;;;;;;;;;;;;;25.32;62.16;99186.38;3125285;28;20019;-69
2022/08/25 06:41:44;;;;;;;;;;;;;;;25.33;61.98;99185.34;3122236;28;19933;-69
2022/08/25 06:43:15;;;;;;;;;;;;;;;25.30;61.63;99180.38;3122104;28;19987;-70
2022/08/25 06:44:47;;;;;;;;;;;;;;;25.33;62.25;99193.34;3121849;28;19947;-69
2022/08/25 06:46:22;;;;;;;;;;;;;;;25.34;62.14;99180.84;3122085;28;19932;-69
2022/08/25 06:47:53;;;;;;;;;;;;;;;25.36;61.97;99185.00;3122214;28;19925;-68
2022/08/25 06:49:27;;;;;;;;;;;;;;;25.40;62.38;99180.94;3121716;28;20460;-71
2022/08/25 06:50:59;;;;;;;;;;;;;;;25.43;61.96;99180.59;3122014;28;19925;-68
2022/08/25 06:52:30;;;;;;;;;;;;;;;25.46;61.41;99179.41;3121970;28;19929;-68
2022/08/25 06:54:02;;;;;;;;;;;;;;;25.53;61.51;99183.03;3122083;28;19929;-68
2022/08/25 06:55:35;;;;;;;;;;;;;;;25.57;61.63;99176.31;3122557;28;19926;-68
2022/08/25 06:57:07;;;;;;;;;;;;;;;25.67;61.24;99175.22;3121711;28;19975;-69
2022/08/25 06:58:39;;;;;;;;;;;;;;;25.75;61.06;99178.63;3121846;28;19943;-66
2022/08/25 07:00:11;;;;;;;;;;;;;;;25.82;61.21;99168.09;3121947;28;19929;-66
2022/08/25 07:01:44;;;;;;;;;;;;;;;25.93;60.93;99174.81;3121874;28;20463;-64
2022/08/25 07:03:15;;;;;;;;;;;;;;;26.04;61.33;99174.38;3121808;28;19936;-64
2022/08/25 07:04:47;;;;;;;;;;;;;;;26.12;60.18;99179.63;3121596;28;19936;-64
2022/08/25 07:06:18;;;;;;;;;;;;;;;26.18;59.51;99172.72;3122103;28;20456;-65
2022/08/25 07:07:50;;;;;;;;;;;;;;;26.23;59.60;99173.78;3121758;28;20422;-64
2022/08/25 07:09:22;;;;;;;;;;;;;;;26.29;59.35;99175.72;3121354;28;20535;-64
2022/08/25 07:10:54;;;;;;;;;;;;;;;26.35;59.37;99179.47;3124427;28;19932;-64
2022/08/25 07:12:26;;;;;;;;;;;;;;;26.43;59.52;99176.72;3121659;28;19952;-62
2022/08/25 07:13:58;;;;;;;;;;;;;;;26.49;58.82;99175.13;3121708;28;20294;-62
2022/08/25 07:15:29;;;;;;;;;;;;;;;26.54;58.45;99164.78;3119626;28;19925;-63
2022/08/25 07:17:02;;;;;;;;;;;;;;;26.64;58.99;99164.47;3121079;28;19925;-65
2022/08/25 07:18:35;;;;;;;;;;;;;;;26.74;58.69;99162.31;3120862;28;20432;-64
2022/08/25 07:20:07;;;;;;;;;;;;;;;26.84;58.21;99164.69;3121229;28;19936;-64
2022/08/25 07:21:40;;;;;;;;;;;;;;;26.94;58.39;99155.31;3119032;28;19925;-64
2022/08/25 07:23:12;;;;;;;;;;;;;;;27.04;58.23;99151.53;3121870;28;19990;-65
2022/08/25 07:24:43;;;;;;;;;;;;;;;27.12;57.77;99149.53;3121699;28;19929;-62
2022/08/25 07:26:16;;;;;;;;;;;;;;;27.22;58.01;99160.75;3121175;28;20009;-63
2022/08/25 07:27:47;;;;;;;;;;;;;;;27.33;57.18;99155.91;3121110;28;19946;-63
2022/08/25 07:29:20;;;;;;;;;;;;;;;27.46;57.26;99150.66;3114248;28;19925;-63
2022/08/25 07:30:52;;;;;;;;;;;;;;;27.57;56.61;99152.00;3121157;28;20272;-66
2022/08/25 07:32:25;;;;;;;;;;;;;;;27.68;56.46;99156.78;3121672;28;19929;-67
2022/08/25 07:35:46;;;;;;;;;;;;;;;27.84;54.08;99156.53;3121225;28;19969;-67
2022/08/25 07:37:16;;;;;;;;;;;;;;;27.85;53.63;99163.53;3121368;28;19934;-68
2022/08/25 07:38:48;;;;;;;;;;;;;;;27.89;53.72;99159.44;3121247;28;19936;-66
2022/08/25 07:40:21;;;;;;;;;;;;;;;27.96;54.27;99155.97;3125169;28;19925;-67
2022/08/25 07:41:51;;;;;;;;;;;;;;;28.04;53.94;99159.31;3120995;28;19929;-67
2022/08/25 07:43:23;;;;;;;;;;;;;;;28.04;53.18;99153.97;3121078;28;19936;-65
2022/08/25 07:44:55;;;;;;;;;;;;;;;28.07;53.14;99158.94;3121321;28;20337;-66
2022/08/25 07:46:26;;;;;;;;;;;;;;;28.09;52.89;99156.84;3120685;28;19932;-66
2022/08/25 07:48:03;;;;;;;;;;;;;;;28.12;52.81;99155.63;3120867;28;20157;-66
2022/08/25 07:49:35;;;;;;;;;;;;;;;28.20;52.84;99160.81;3121425;28;19925;-65
2022/08/25 07:51:07;;;;;;;;;;;;;;;28.30;52.35;99163.94;3121155;28;20491;-65
2022/08/25 07:52:39;;;;;;;;;;;;;;;28.36;51.47;99157.78;3121794;28;19925;-64
2022/08/25 07:54:11;;;;;;;;;;;;;;;28.44;51.91;99164.88;3121637;28;19956;-65
2022/08/25 07:55:43;;;;;;;;;;;;;;;28.55;51.55;99156.25;3127192;28;19941;-66
2022/08/25 07:57:15;;;;;;;;;;;;;;;28.71;51.38;99156.91;3121204;28;20004;-67
2022/08/25 07:58:47;;;;;;;;;;;;;;;28.92;51.33;99156.75;3121370;28;20327;-68
2022/08/25 08:00:19;;;;;;;;;;;;;;;29.19;51.25;99156.81;3121458;28;19931;-67
2022/08/25 08:01:50;;;;;;;;;;;;;;;29.41;49.68;99154.78;3120479;28;19929;-67
2022/08/25 08:03:23;;;;;;;;;;;;;;;29.63;49.79;99158.88;3121381;28;20499;-67
2022/08/25 08:04:55;;;;;;;;;;;;;;;29.88;49.32;99167.13;3121344;28;19925;-65
2022/08/25 08:06:26;;;;;;;;;;;;;;;30.12;49.34;99164.78;3120983;28;20275;-65
2022/08/25 08:07:58;;;;;;;;;;;;;;;30.36;48.25;99169.47;3121447;28;19925;-64